Latest Weather Observations for Hobart Airport

IDT60801

Issued at 1:02 pm EDT Monday 26 January 2015 (issued every 30 minutes, with the page automatically refreshed every 10 minutes)

About weather observations | Map of weather stations | Latest weather observations for TAS | Other Formats
Station Details ID: 094008 Name: HOBART AIRPORT Lat: -42.83 Lon: 147.50 Height: 4.0 m
Data from the previous 72 hours. | See also: Recent months at Hobart Airport
Date/Time
EDT
Temp
°C
App
Temp
°C
Dew
Point
Rel
Hum
%
Delta-T
°C
Wind Press
QNH
hPa
Press
MSL
hPa
Rain
since 9 am
mm
Dir
 
Spd
km/h
Gust
km/h
Spd
kts
Gust
kts
26/12:30pm 17.1 11.9 2.6 38 6.6 W 19 32 10 17 1013.6 1013.5 0.0
26/11:30am 16.7 9.0 3.5 41 6.1 NW 33 41 18 22 1013.3 1013.2 0.0
26/11:00am 16.5 8.9 2.6 39 6.3 WNW 32 44 17 24 1013.2 1013.1 0.0
26/10:30am 16.0 9.8 2.4 40 6.1 W 24 39 13 21 1013.1 1013.0 0.0
26/09:30am 14.6 7.9 3.6 47 5.0 WNW 28 37 15 20 1012.7 1012.6 0.0
26/09:00am 14.8 7.8 3.9 48 5.0 NW 30 35 16 19 1012.5 1012.4 0.8
26/08:30am 13.6 7.6 3.4 50 4.6 NW 24 33 13 18 1012.0 1011.9 0.8
26/08:00am 13.4 7.0 3.4 50 4.5 WNW 26 33 14 18 1011.6 1011.5 0.8
26/07:00am 12.2 7.0 3.7 56 3.8 NW 20 30 11 16 1010.6 1010.5 0.8
26/06:30am 12.1 6.8 3.0 53 4.0 NW 20 28 11 15 1010.0 1009.9 0.8
26/05:30am 11.9 6.6 3.0 54 3.9 NW 20 32 11 17 1008.7 1008.6 0.8
26/05:00am 11.7 6.0 3.1 55 3.8 NW 22 32 12 17 1008.1 1008.0 0.8
26/04:30am 11.3 4.9 3.4 58 3.5 NW 26 33 14 18 1007.6 1007.5 0.8
26/04:00am 11.0 4.3 3.8 61 3.2 NW 28 35 15 19 1007.2 1007.1 0.8
26/03:30am 11.1 4.2 2.8 56 3.6 NW 28 35 15 19 1007.1 1007.0 0.8
26/03:00am 10.9 4.2 3.4 60 3.3 NW 28 35 15 19 1006.8 1006.7 0.8
26/02:30am 11.0 6.4 3.8 61 3.2 NNW 17 26 9 14 1006.8 1006.7 0.8
26/02:00am 10.8 4.8 3.3 60 3.3 NW 24 32 13 17 1006.6 1006.5 0.8
26/01:30am 10.6 6.8 3.8 63 3.0 NNW 13 17 7 9 1006.5 1006.4 0.8
26/01:00am 10.6 6.4 3.6 62 3.1 NNW 15 22 8 12 1006.6 1006.5 0.8
26/12:30am 10.5 5.5 3.4 61 3.1 NNW 19 26 10 14 1006.5 1006.4 0.8
 
Date/Time
EDT
Temp
°C
App
Temp
°C
Dew
Point
Rel
Hum
%
Delta-T
°C
Wind Press
QNH
hPa
Press
MSL
hPa
Rain
since 9 am
mm
Dir
 
Spd
km/h
Gust
km/h
Spd
kts
Gust
kts
25/11:30pm 10.3 6.4 3.5 62 3.0 N 13 19 7 10 1006.2 1006.1 0.8
25/11:00pm 10.6 6.4 3.8 63 3.0 NNW 15 19 8 10 1005.8 1005.7 0.8
25/10:30pm 10.6 5.8 4.4 65 2.8 NNW 19 26 10 14 1005.6 1005.5 0.8
25/10:00pm 11.3 6.0 1.7 51 4.1 NW 19 28 10 15 1005.2 1005.1 0.8
25/09:30pm 11.5 6.0 1.9 51 4.1 WNW 20 32 11 17 1005.0 1004.9 0.8
25/09:00pm 12.1 6.2 1.6 48 4.5 WNW 22 32 12 17 1004.4 1004.3 0.8
25/08:30pm 12.6 6.4 2.3 49 4.5 WNW 24 35 13 19 1004.1 1004.0 0.8
25/08:00pm 13.3 6.3 1.8 45 5.0 WNW 28 44 15 24 1003.4 1003.3 0.8
25/07:30pm 14.0 8.1 1.9 44 5.3 WNW 22 32 12 17 1003.0 1002.9 0.8
25/07:00pm 14.1 5.2 0.5 39 5.8 WNW 37 48 20 26 1002.5 1002.4 0.8
25/06:48pm 13.7 6.5 0.5 40 5.6 WNW 28 48 15 26 1002.2 1002.1 0.8
25/06:30pm 14.0 6.4 0.7 40 5.7 W 30 41 16 22 1002.0 1001.9 0.8
25/05:30pm 16.8 8.6 0.6 33 7.0 W 33 44 18 24 1000.7 1000.6 0.8
25/05:12pm 17.0 8.9 -0.1 31 7.3 WNW 32 52 17 28 1000.3 1000.2 0.8
25/05:00pm 15.5 7.7 1.4 38 6.2 NW 32 41 17 22 1000.2 1000.1 0.8
25/04:36pm 15.7 6.5 1.1 37 6.4 WNW 39 52 21 28 1000.2 1000.1 0.8
25/04:30pm 15.7 7.6 0.8 36 6.4 W 33 52 18 28 1000.1 1000.0 0.8
25/04:28pm 15.7 7.8 0.8 36 6.4 W 32 50 17 27 1000.1 1000.0 0.8
25/04:00pm 16.5 8.6 1.1 35 6.8 WNW 32 48 17 26 999.8 999.7 0.8
25/03:55pm 16.4 8.2 0.6 34 6.9 W 33 52 18 28 999.8 999.7 0.8
25/03:30pm 16.6 8.7 1.3 35 6.7 WNW 32 46 17 25 999.6 999.5 0.8
25/03:27pm 16.6 9.5 1.6 36 6.7 WNW 28 46 15 25 999.5 999.4 0.8
25/03:00pm 17.4 10.3 1.6 34 7.1 W 28 35 15 19 999.3 999.2 0.8
25/02:30pm 17.3 10.6 3.7 40 6.3 W 28 39 15 21 999.3 999.2 0.8
25/02:00pm 16.9 9.2 2.1 37 6.7 NW 32 43 17 23 998.9 998.8 0.8
25/01:30pm 17.8 12.5 3.2 37 6.8 WNW 20 30 11 16 998.9 998.8 0.8
25/01:00pm 17.0 9.7 2.3 37 6.7 W 30 37 16 20 998.8 998.7 0.6
25/12:54pm 18.0 11.4 4.4 40 6.5 WNW 28 37 15 20 998.7 998.6 0.6
25/12:30pm 15.5 13.5 7.3 58 4.1 SSW 7 13 4 7 998.8 998.7 0.6
25/12:00pm 15.6 11.7 5.4 50 4.9 SW 15 20 8 11 999.0 998.9 0.6
25/11:30am 16.2 11.8 4.6 46 5.5 NW 17 26 9 14 998.7 998.6 0.6
25/11:00am 14.3 13.2 6.7 60 3.7 NNE 2 7 1 4 999.1 999.0 0.6
25/10:30am 13.4 12.0 9.7 78 1.9 SSW 7 9 4 5 999.2 999.1 0.6
25/10:00am 13.0 12.5 9.3 78 1.9 E 2 7 1 4 999.0 998.9 0.6
25/09:30am 12.8 11.2 10.3 85 1.3 SW 9 15 5 8 998.7 998.6 0.6
25/09:00am 13.0 11.6 9.7 80 1.7 SSE 7 19 4 10 998.9 998.8 1.6
25/08:30am 14.1 13.4 11.5 84 1.4 ENE 6 9 3 5 998.5 998.4 0.8
25/08:00am 13.9 12.6 11.3 84 1.4 SSE 9 13 5 7 998.3 998.2 0.8
25/07:30am 13.7 12.8 10.7 82 1.6 ESE 6 7 3 4 998.6 998.5 0.6
25/07:00am 13.8 10.2 10.6 81 1.7 SSW 20 30 11 16 998.1 998.0 0.4
25/06:30am 15.2 11.5 9.4 68 3.0 SW 19 26 10 14 997.7 997.6 0.0
25/06:00am 15.2 13.1 9.9 70 2.8 SW 11 15 6 8 997.0 997.0 0.0
25/05:30am 15.4 12.3 10.3 71 2.7 NNW 17 26 9 14 996.8 996.8 0.0
25/05:00am 15.3 12.9 10.0 70 2.8 NNW 13 20 7 11 996.2 996.2 0.0
25/04:30am 15.1 13.6 9.1 67 3.1 NW 7 9 4 5 995.9 995.9 0.0
25/04:00am 14.5 13.1 9.5 72 2.6 NNW 7 9 4 5 996.0 996.0 0.0
25/03:30am 14.6 12.2 8.5 67 3.1 N 11 17 6 9 996.3 996.3 0.0
25/03:00am 14.8 12.6 9.2 69 2.9 N 11 13 6 7 996.4 996.4 0.0
25/02:30am 16.4 14.0 8.6 60 4.0 NNW 11 17 6 9 996.6 996.6 0.0
25/02:00am 15.6 13.0 9.5 67 3.2 NW 13 20 7 11 997.1 997.1 0.0
25/01:30am 16.6 13.9 8.9 60 4.0 NNW 13 19 7 10 997.5 997.4 0.0
25/01:00am 16.0 14.5 9.3 64 3.5 NW 7 13 4 7 998.0 997.9 0.0
25/12:30am 14.6 13.6 12.4 87 1.2 NNW 9 13 5 7 998.2 998.1 0.0
25/12:00am 15.0 14.2 12.8 87 1.2 N 9 11 5 6 998.6 998.5 0.0
 
Date/Time
EDT
Temp
°C
App
Temp
°C
Dew
Point
Rel
Hum
%
Delta-T
°C
Wind Press
QNH
hPa
Press
MSL
hPa
Rain
since 9 am
mm
Dir
 
Spd
km/h
Gust
km/h
Spd
kts
Gust
kts
24/11:30pm 14.7 13.7 12.3 85 1.3 N 9 15 5 8 999.2 999.1 0.0
24/11:00pm 15.3 16.1 12.4 83 1.6 CALM 0 0 0 0 999.4 999.3 0.0
24/10:30pm 14.9 15.7 12.5 85 1.3 CALM 0 0 0 0 999.4 999.3 0.0
24/10:00pm 15.6 16.3 12.3 81 1.8 CALM 0 0 0 0 999.5 999.4 0.0
24/09:30pm 15.6 14.9 12.1 80 1.9 SSE 7 7 4 4 999.6 999.5 0.0
24/09:00pm 15.8 14.8 12.2 79 2.0 SSW 9 13 5 7 999.2 999.1 0.0
24/08:30pm 16.5 14.3 12.0 75 2.5 S 15 20 8 11 998.9 998.8 0.0
24/08:00pm 17.5 14.7 11.5 68 3.3 SSW 17 20 9 11 998.6 998.5 0.0
24/07:30pm 18.2 14.9 11.5 65 3.7 S 20 26 11 14 998.3 998.2 0.0
24/07:00pm 18.9 15.1 11.3 61 4.2 S 22 30 12 16 998.2 998.1 0.0
24/06:30pm 20.2 14.8 10.9 55 5.1 S 30 33 16 18 997.9 997.8 0.0
24/06:00pm 20.8 15.8 10.8 52 5.5 SSE 28 32 15 17 997.9 997.8 0.0
24/05:30pm 21.4 15.6 10.9 51 5.8 S 32 39 17 21 998.1 998.0 0.0
24/05:00pm 22.1 16.8 11.2 50 6.1 SSE 30 35 16 19 998.5 998.4 0.0
24/04:30pm 21.6 16.1 11.8 53 5.5 S 32 39 17 21 998.6 998.5 0.0
24/04:00pm 21.4 16.1 12.4 56 5.1 S 32 37 17 20 998.9 998.8 0.0
24/03:30pm 22.4 18.5 10.7 47 6.4 SE 22 30 12 16 998.9 998.8 0.0
24/03:00pm 22.5 18.2 10.6 47 6.6 SE 24 32 13 17 999.3 999.2 0.0
24/02:30pm 21.9 16.8 10.7 49 6.2 SE 28 32 15 17 999.9 999.8 0.0
24/02:00pm 22.5 19.9 9.2 42 7.2 E 13 30 7 16 1000.2 1000.1 0.0
24/01:30pm 24.1 22.0 8.2 36 8.5 N 9 17 5 9 1000.7 1000.6 0.0
24/01:00pm 22.7 19.5 6.9 36 8.2 NNW 13 22 7 12 1001.3 1001.2 0.0
24/12:30pm 22.5 19.4 7.1 37 8.0 NNE 13 22 7 12 1001.7 1001.6 0.0
24/12:00pm 21.6 18.4 6.8 38 7.6 N 13 19 7 10 1002.2 1002.1 0.0
24/11:30am 21.5 17.4 7.7 41 7.2 N 19 28 10 15 1002.2 1002.1 0.0
24/11:00am 20.7 16.6 7.8 43 6.7 N 19 33 10 18 1002.7 1002.6 0.0
24/10:30am 19.7 15.5 8.4 48 5.9 NNE 20 28 11 15 1003.5 1003.4 0.0
24/10:00am 19.2 15.8 9.2 52 5.3 N 17 26 9 14 1003.9 1003.8 0.0
24/09:30am 18.4 14.7 9.5 56 4.7 NNE 19 28 10 15 1004.2 1004.1 0.0
24/09:00am 17.9 13.3 10.9 63 3.8 NE 26 32 14 17 1004.4 1004.3 0.2
24/08:30am 17.2 13.8 10.7 65 3.5 NNE 19 24 10 13 1004.6 1004.5 0.2
24/08:00am 16.5 13.6 11.1 70 2.9 NNE 17 24 9 13 1005.1 1005.0 0.2
24/07:30am 15.6 12.2 10.7 72 2.6 NNE 19 28 10 15 1005.3 1005.2 0.2
24/07:00am 15.1 12.2 11.0 76 2.2 NE 17 26 9 14 1005.2 1005.1 0.2
24/06:30am 14.6 12.3 10.6 77 2.1 NE 13 19 7 10 1005.3 1005.2 0.2
24/06:00am 14.5 12.2 10.3 76 2.2 NE 13 17 7 9 1005.3 1005.2 0.2
24/05:30am 14.3 11.9 9.9 75 2.3 NE 13 19 7 10 1005.3 1005.2 0.2
24/05:00am 13.8 12.2 10.2 79 1.9 NE 9 15 5 8 1005.6 1005.5 0.2
24/04:30am 13.9 12.6 10.1 78 2.0 N 7 11 4 6 1005.9 1005.8 0.2
24/04:00am 14.2 11.8 10.2 77 2.1 NE 13 17 7 9 1006.3 1006.2 0.2
24/03:30am 14.2 11.8 10.2 77 2.1 NE 13 17 7 9 1006.7 1006.6 0.2
24/03:00am 14.2 11.6 10.6 79 1.9 ENE 15 24 8 13 1007.0 1006.9 0.2
24/02:30am 14.1 11.4 10.5 79 1.9 ENE 15 22 8 12 1007.4 1007.3 0.2
24/02:00am 14.1 12.0 11.1 82 1.6 ENE 13 20 7 11 1007.5 1007.4 0.2
24/01:30am 14.1 11.7 11.5 84 1.4 NE 15 26 8 14 1007.7 1007.6 0.0
24/01:00am 14.0 12.2 12.0 88 1.1 E 13 19 7 10 1007.4 1007.3 0.0
24/12:30am 15.0 12.5 10.9 76 2.2 E 15 24 8 13 1007.6 1007.5 0.0
24/12:00am 15.9 13.9 8.7 62 3.7 ESE 9 15 5 8 1007.8 1007.7 0.0
 
Date/Time
EDT
Temp
°C
App
Temp
°C
Dew
Point
Rel
Hum
%
Delta-T
°C
Wind Press
QNH
hPa
Press
MSL
hPa
Rain
since 9 am
mm
Dir
 
Spd
km/h
Gust
km/h
Spd
kts
Gust
kts
23/11:30pm 16.2 13.9 7.6 56 4.3 ESE 9 13 5 7 1007.7 1007.6 0.0
23/11:00pm 16.6 13.4 6.9 52 4.8 NE 13 17 7 9 1007.5 1007.4 0.0
23/10:30pm 17.0 13.7 6.5 50 5.2 E 13 22 7 12 1007.2 1007.1 0.0
23/10:00pm 17.3 13.6 4.7 43 6.0 NW 13 15 7 8 1006.8 1006.7 0.0
23/09:30pm 17.7 14.0 4.5 41 6.3 NW 13 19 7 10 1006.3 1006.2 0.0
23/09:00pm 17.9 14.8 7.2 49 5.4 NNW 13 20 7 11 1006.1 1006.0 0.0
23/08:30pm 18.5 15.8 5.7 43 6.3 NW 9 11 5 6 1005.8 1005.7 0.0
23/08:00pm 19.0 16.2 6.9 45 6.1 NW 11 17 6 9 1005.3 1005.2 0.0
23/07:30pm 19.3 14.8 6.0 41 6.6 NW 19 26 10 14 1004.8 1004.7 0.0
23/07:00pm 19.7 14.2 5.8 40 6.9 WSW 24 32 13 17 1003.8 1003.7 0.0
23/06:30pm 21.1 15.4 6.6 39 7.4 W 26 35 14 19 1003.2 1003.1 0.0
23/06:00pm 21.4 18.8 9.3 46 6.5 NW 13 24 7 13 1002.7 1002.6 0.0
23/05:30pm 20.2 16.8 11.4 57 4.9 ENE 20 32 11 17 1002.2 1002.1 0.0
23/05:00pm 22.3 17.4 10.1 46 6.7 S 26 35 14 19 1001.4 1001.3 0.0
23/04:30pm 25.7 21.4 6.9 30 9.9 WSW 19 28 10 15 1001.1 1001.0 0.0
23/04:00pm 25.1 18.2 6.5 30 9.7 W 32 43 17 23 1000.7 1000.6 0.0
23/03:57pm 25.1 18.3 6.8 31 9.5 W 32 50 17 27 1000.7 1000.6 0.0
23/03:34pm 25.5 18.6 7.2 31 9.6 WNW 33 46 18 25 1000.5 1000.4 0.0
23/03:30pm 25.6 17.8 6.8 30 9.8 W 37 54 20 29 1000.6 1000.5 0.0
23/03:00pm 25.9 18.8 8.1 32 9.6 W 35 46 19 25 1000.1 1000.0 0.0
23/02:30pm 25.7 18.2 6.4 29 10.0 WNW 35 44 19 24 999.8 999.7 0.0
23/02:00pm 25.0 20.5 10.1 39 8.3 NW 24 33 13 18 999.8 999.7 0.0
23/01:30pm 25.0 19.4 10.1 39 8.2 WNW 30 37 16 20 1000.0 999.9 0.0

Other Formats:

Comma delimited format used in spreadsheet applications
http://www.bom.gov.au/fwo/IDT60801/IDT60801.94975.axf

JavaScript Object Notation format (JSON) in row-major order
http://www.bom.gov.au/fwo/IDT60801/IDT60801.94975.json